»·PEaware :: N51204 KBUR-KLAS

N51204 :: KBUR-KLAS

FLIGHT INFORMATION

Flight Status: Arrived
Operator: Privately registered:
United States
More flights under this callsign
Pilot: Lukasz P. (2802)
Aircraft: CESSNA 172 SKYHAWK
(C172)
More flights by this aircraft type
Origin: KBUR Bob Hope-Burbank
United States
Destination: KLAS McCarran Intl
United States
More flights between these airports :: More routes between these airports
Route: +VNY3 DAG CRESO4
File this flight plan on PilotEdge
Remarks:
Altitude:
(Current/Filed)
9,000ft
Speed:
(Current/Filed)
115kts
Departed: 17-Nov-20 04:41 PM
Arrived: 17-Nov-20 06:47 PM
Distance/Time
Traveled:
193nm/2:06
Distance/Time
To Go:
Arrived

Flight Plot

Page will automatically refresh every two minutes.

Flight plan parsing failed; only flown route is shown


Map Options




Map Legend


Flown Route
Filed Route
Departure Airport
Arrival Airport
Navaid (VOR, NDB)
Fix

Horizontal Profiles

Position Reports

Time Latitude Longitude Heading Altitude Ground
Speed
17-Nov-20 16:21 34.203858 -118.359847 79 734ft 0kts
17-Nov-20 16:22 34.203858 -118.359847 79 734ft 0kts
17-Nov-20 16:23 34.203857 -118.359847 79 734ft 0kts
17-Nov-20 16:24 34.203857 -118.359847 79 734ft 0kts
17-Nov-20 16:25 34.203857 -118.359847 79 734ft 0kts
17-Nov-20 16:26 34.203857 -118.359848 79 734ft 0kts
17-Nov-20 16:27 34.203857 -118.359848 79 734ft 0kts
17-Nov-20 16:28 34.203857 -118.359848 79 734ft 0kts
17-Nov-20 16:29 34.203857 -118.359848 79 734ft 0kts
17-Nov-20 16:30 34.203857 -118.359848 79 734ft 0kts
17-Nov-20 16:31 34.203857 -118.359848 79 734ft 0kts
17-Nov-20 16:32 34.203857 -118.359848 79 734ft 0kts
17-Nov-20 16:33 34.203857 -118.359848 79 734ft 0kts
17-Nov-20 16:34 34.205038 -118.359598 347 740ft 10kts
17-Nov-20 16:35 34.208716 -118.360610 347 763ft 16kts
17-Nov-20 16:36 34.211889 -118.361381 34 781ft 0kts
17-Nov-20 16:37 34.211889 -118.361381 34 781ft 0kts
17-Nov-20 16:38 34.211889 -118.361381 34 781ft 0kts
17-Nov-20 16:39 34.212137 -118.360997 76 781ft 11kts
17-Nov-20 16:40 34.198867 -118.357766 211 973ft 80kts
17-Nov-20 16:41 34.183396 -118.375999 225 1684ft 77kts
17-Nov-20 16:42 34.167935 -118.394386 225 2317ft 78kts
17-Nov-20 16:43 34.152329 -118.412857 225 2981ft 79kts
17-Nov-20 16:44 34.154452 -118.433164 312 3621ft 79kts
17-Nov-20 16:45 34.169679 -118.452710 312 4258ft 80kts
17-Nov-20 16:46 34.185162 -118.472580 312 4881ft 81kts
17-Nov-20 16:47 34.203551 -118.479005 41 5454ft 84kts
17-Nov-20 16:48 34.221605 -118.460484 37 6018ft 85kts
17-Nov-20 16:49 34.240329 -118.442538 38 6569ft 86kts
17-Nov-20 16:50 34.259022 -118.424488 38 7090ft 87kts
17-Nov-20 16:51 34.277647 -118.406539 38 7582ft 87kts
17-Nov-20 16:52 34.296849 -118.388031 38 8074ft 88kts
17-Nov-20 16:53 34.316102 -118.369468 38 8542ft 89kts
17-Nov-20 16:54 34.335526 -118.350726 38 8991ft 89kts
17-Nov-20 16:55 34.355105 -118.331821 38 9422ft 90kts
17-Nov-20 16:56 34.374864 -118.312733 38 9839ft 91kts
17-Nov-20 16:57 34.394682 -118.293577 38 10249ft 91kts
17-Nov-20 16:58 34.414617 -118.274294 38 10641ft 92kts
17-Nov-20 16:59 34.433734 -118.255789 38 10978ft 93kts
17-Nov-20 17:00 34.456790 -118.233451 38 11003ft 113kts
17-Nov-20 17:01 34.481255 -118.209754 38 10990ft 111kts
17-Nov-20 17:02 34.505256 -118.186470 38 11000ft 110kts
17-Nov-20 17:03 34.529179 -118.163245 38 11001ft 110kts
17-Nov-20 17:04 34.553430 -118.139685 38 10998ft 112kts
17-Nov-20 17:05 34.577777 -118.116014 38 10999ft 112kts
17-Nov-20 17:06 34.602192 -118.092259 38 11000ft 112kts
17-Nov-20 17:07 34.626601 -118.068535 40 10999ft 112kts
17-Nov-20 17:08 34.634966 -118.032516 82 11000ft 113kts
17-Nov-20 17:09 34.639031 -117.994717 82 10999ft 113kts
17-Nov-20 17:10 34.643176 -117.956643 82 11000ft 114kts
17-Nov-20 17:11 34.647368 -117.918228 82 10999ft 115kts
17-Nov-20 17:12 34.651564 -117.879689 82 10999ft 115kts
17-Nov-20 17:13 34.655747 -117.841145 82 10998ft 115kts
17-Nov-20 17:14 34.659936 -117.802449 82 11000ft 115kts
17-Nov-20 17:15 34.664363 -117.763936 77 10999ft 115kts
17-Nov-20 17:16 34.673568 -117.726561 72 11000ft 115kts
17-Nov-20 17:17 34.683156 -117.689476 72 10999ft 115kts
17-Nov-20 17:18 34.692723 -117.652224 72 10999ft 115kts
17-Nov-20 17:19 34.702259 -117.615009 72 11000ft 115kts
17-Nov-20 17:20 34.711776 -117.577812 72 10999ft 115kts
17-Nov-20 17:21 34.721300 -117.540528 72 10999ft 115kts
17-Nov-20 17:22 34.730806 -117.503263 72 11000ft 115kts
17-Nov-20 17:23 34.740253 -117.466175 72 11000ft 115kts
17-Nov-20 17:24 34.749714 -117.428983 72 10999ft 115kts
17-Nov-20 17:25 34.759189 -117.391681 72 10999ft 115kts
17-Nov-20 17:26 34.768631 -117.354455 72 11000ft 115kts
17-Nov-20 17:27 34.778063 -117.317210 72 10999ft 115kts
17-Nov-20 17:28 34.787480 -117.279981 72 11000ft 115kts
17-Nov-20 17:29 34.796890 -117.242719 72 10999ft 115kts
17-Nov-20 17:30 34.806318 -117.205332 72 11000ft 115kts
17-Nov-20 17:31 34.815735 -117.167938 72 10999ft 115kts
17-Nov-20 17:32 34.825115 -117.130640 72 10999ft 115kts
17-Nov-20 17:33 34.834495 -117.093279 72 10999ft 115kts
17-Nov-20 17:34 34.843875 -117.055868 72 11001ft 115kts
17-Nov-20 17:35 34.853249 -117.018432 72 10998ft 115kts
17-Nov-20 17:36 34.862599 -116.981029 73 10999ft 115kts
17-Nov-20 17:37 34.871924 -116.943677 72 10999ft 115kts
17-Nov-20 17:38 34.881236 -116.906322 72 11000ft 115kts
17-Nov-20 17:39 34.890578 -116.868795 73 10999ft 115kts
17-Nov-20 17:40 34.899878 -116.831376 73 11000ft 115kts
17-Nov-20 17:41 34.909184 -116.793881 73 11000ft 115kts
17-Nov-20 17:42 34.918465 -116.756436 73 10999ft 115kts
17-Nov-20 17:43 34.927726 -116.719007 73 11000ft 115kts
17-Nov-20 17:44 34.936974 -116.681581 73 10999ft 115kts
17-Nov-20 17:45 34.946237 -116.644044 73 10999ft 115kts
17-Nov-20 17:46 34.955490 -116.606487 73 10999ft 115kts
17-Nov-20 17:47 34.966173 -116.569754 62 11000ft 115kts
17-Nov-20 17:48 34.981479 -116.535321 60 11000ft 115kts
17-Nov-20 17:49 34.996812 -116.500951 61 10999ft 115kts
17-Nov-20 17:50 35.012085 -116.466593 61 11000ft 115kts
17-Nov-20 17:51 35.027375 -116.432151 61 11000ft 115kts
17-Nov-20 17:52 35.042676 -116.397649 61 10999ft 115kts
17-Nov-20 17:53 35.057951 -116.363170 61 11000ft 115kts
17-Nov-20 17:54 35.073295 -116.328502 61 11004ft 116kts
17-Nov-20 17:55 35.088709 -116.293644 61 10997ft 116kts
17-Nov-20 17:56 35.103986 -116.259058 61 11000ft 115kts
17-Nov-20 17:57 35.119241 -116.224486 61 11000ft 116kts
17-Nov-20 17:58 35.134484 -116.189903 61 10999ft 116kts
17-Nov-20 17:59 35.149725 -116.155291 61 10999ft 115kts
17-Nov-20 18:01 35.165005 -116.120558 61 11000ft 116kts
17-Nov-20 18:02 35.180153 -116.086087 61 11000ft 115kts
17-Nov-20 18:03 35.195361 -116.051444 61 11000ft 115kts
17-Nov-20 18:04 35.210534 -116.016847 61 11000ft 115kts
17-Nov-20 18:05 35.225736 -115.982148 61 11000ft 115kts
17-Nov-20 18:06 35.240926 -115.947443 61 11000ft 116kts
17-Nov-20 18:07 35.256131 -115.912664 61 11000ft 116kts
17-Nov-20 18:08 35.271332 -115.877859 61 11000ft 116kts
17-Nov-20 18:09 35.286530 -115.843026 61 10999ft 116kts
17-Nov-20 18:10 35.301789 -115.808017 61 10999ft 116kts
17-Nov-20 18:11 35.319629 -115.774843 47 10866ft 125kts
17-Nov-20 18:12 35.343777 -115.742883 46 10365ft 129kts
17-Nov-20 18:13 35.367874 -115.710882 46 10025ft 123kts
17-Nov-20 18:14 35.390134 -115.681197 46 10001ft 115kts
17-Nov-20 18:15 35.411499 -115.652671 46 10001ft 113kts
17-Nov-20 18:16 35.432903 -115.624070 46 10001ft 113kts
17-Nov-20 18:17 35.454219 -115.595565 46 10000ft 113kts
17-Nov-20 18:18 35.475612 -115.566931 46 9998ft 114kts
17-Nov-20 18:19 35.496991 -115.538293 47 10000ft 113kts
17-Nov-20 18:19 35.514737 -115.514510 46 9999ft 113kts
17-Nov-20 18:21 35.539453 -115.481374 46 10000ft 113kts
17-Nov-20 18:21 35.557103 -115.457688 46 10000ft 113kts
17-Nov-20 18:22 35.578318 -115.429197 46 10000ft 113kts
17-Nov-20 18:23 35.599612 -115.400577 46 10000ft 113kts
17-Nov-20 18:24 35.620852 -115.372004 47 10000ft 113kts
17-Nov-20 18:25 35.642110 -115.343383 47 9999ft 113kts
17-Nov-20 18:26 35.668510 -115.321318 22 9767ft 125kts
17-Nov-20 18:27 35.700708 -115.304474 22 9238ft 127kts
17-Nov-20 18:28 35.734060 -115.286991 22 8534ft 131kts
17-Nov-20 18:29 35.767070 -115.269643 22 7936ft 128kts
17-Nov-20 18:30 35.800388 -115.252098 22 7241ft 131kts
17-Nov-20 18:31 35.833937 -115.234408 22 6542ft 131kts
17-Nov-20 18:32 35.867259 -115.216807 22 6042ft 123kts
17-Nov-20 18:33 35.897033 -115.200994 22 6002ft 113kts
17-Nov-20 18:34 35.925714 -115.185730 22 6002ft 111kts
17-Nov-20 18:35 35.954266 -115.170531 22 5999ft 111kts
17-Nov-20 18:36 35.982565 -115.155462 22 6000ft 111kts
17-Nov-20 18:37 36.011016 -115.150642 356 5996ft 103kts
17-Nov-20 18:38 36.039693 -115.143873 22 5664ft 111kts
17-Nov-20 18:39 36.068620 -115.128360 22 5164ft 114kts
17-Nov-20 18:40 36.097890 -115.112673 22 4659ft 114kts
17-Nov-20 18:41 36.127241 -115.096949 22 4068ft 112kts
17-Nov-20 18:42 36.149613 -115.104687 298 3599ft 86kts
17-Nov-20 18:43 36.142092 -115.129134 222 3231ft 78kts
17-Nov-20 18:44 36.124319 -115.142276 206 2730ft 75kts
17-Nov-20 18:45 36.105297 -115.153339 206 2351ft 76kts
17-Nov-20 18:46 36.090353 -115.161777 204 2134ft 31kts
17-Nov-20 18:47 36.088595 -115.165172 204 2146ft 10kts
17-Nov-20 18:48 36.085798 -115.167737 297 2156ft 14kts
17-Nov-20 18:49 36.085784 -115.169212 96 2157ft 0kts
17-Nov-20 18:50 36.085784 -115.169212 96 2157ft 0kts
17-Nov-20 18:51 36.085784 -115.169212 96 2157ft 0kts
17-Nov-20 18:52 36.085784 -115.169212 96 2157ft 0kts
17-Nov-20 18:53 36.085784 -115.169212 96 2157ft 0kts
17-Nov-20 18:54 36.085784 -115.169212 96 2157ft 0kts
17-Nov-20 18:55 36.085784 -115.169212 96 2157ft 0kts
17-Nov-20 18:56 36.085784 -115.169212 96 2157ft 0kts
17-Nov-20 18:57 36.085784 -115.169212 96 2157ft 0kts
17-Nov-20 18:58 36.085784 -115.169212 96 2157ft 0kts
17-Nov-20 18:59 36.085784 -115.169212 96 2157ft 0kts
17-Nov-20 19:00 36.085784 -115.169212 96 2157ft 0kts
17-Nov-20 19:01 36.085784 -115.169212 96 2157ft 0kts

Navigation Log

Ident Type
Flight plan parsing failed, navigation log unavailable